createdAt,value
2022-11-08T06:25:30.324Z,5.30
2022-11-08T06:27:31.810Z,5.00
2022-11-08T06:29:33.333Z,4.95
2022-11-08T06:31:37.333Z,5.33
2022-11-08T06:33:42.055Z,4.93
2022-11-08T06:35:43.669Z,5.30
2022-11-08T06:37:45.209Z,5.50
2022-11-08T06:39:46.685Z,4.43
2022-11-08T06:41:49.798Z,4.80
2022-11-08T06:43:51.325Z,4.18
2022-11-08T06:45:52.855Z,4.45
2022-11-08T06:47:57.366Z,4.75
2022-11-08T06:49:58.888Z,5.17
2022-11-08T06:52:00.493Z,5.60
2022-11-08T06:54:02.040Z,4.83
2022-11-08T06:56:03.918Z,4.43
2022-11-08T06:58:06.977Z,4.83
2022-11-08T07:00:09.816Z,4.27
2022-11-08T07:02:11.749Z,4.33
2022-11-08T07:04:13.349Z,4.40
2022-11-08T07:06:14.891Z,4.30
2022-11-08T07:08:22.360Z,4.18
2022-11-08T07:10:28.060Z,4.70
2022-11-08T07:12:31.921Z,4.22
2022-11-08T07:14:35.466Z,4.38
2022-11-08T07:16:36.957Z,5.10
2022-11-08T07:18:38.612Z,4.60
2022-11-08T07:20:41.636Z,4.60
2022-11-08T07:22:43.162Z,5.25
2022-11-08T07:24:44.625Z,5.30
2022-11-08T07:26:46.466Z,4.53
2022-11-08T07:28:48.013Z,4.80
2022-11-08T07:30:50.952Z,4.63
2022-11-08T07:32:53.348Z,5.22
2022-11-08T07:34:54.980Z,4.33
2022-11-08T07:36:56.577Z,4.13
2022-11-08T07:39:00.194Z,5.07
2022-11-08T07:41:06.113Z,5.60
2022-11-08T07:43:23.735Z,5.00
2022-11-08T07:45:25.896Z,7.43
2022-11-08T07:47:29.107Z,6.50
2022-11-08T07:49:30.950Z,5.00
2022-11-08T07:51:32.650Z,4.60
2022-11-08T07:53:34.193Z,5.05
2022-11-08T07:55:36.495Z,5.10
2022-11-08T07:57:38.183Z,6.83
2022-11-08T07:59:39.853Z,5.57
2022-11-08T08:01:41.464Z,4.57
2022-11-08T08:03:44.644Z,4.50
2022-11-08T08:05:52.951Z,5.85
2022-11-08T08:07:58.112Z,5.45
2022-11-08T08:10:00.190Z,5.10
2022-11-08T08:12:01.786Z,5.00
2022-11-08T08:14:03.531Z,5.43
2022-11-08T08:16:05.636Z,6.57
2022-11-08T08:18:08.577Z,6.18
2022-11-08T08:20:13.519Z,5.90
2022-11-08T08:22:15.418Z,7.50
2022-11-08T08:24:17.556Z,9.65
2022-11-08T08:26:19.624Z,7.10
2022-11-08T08:28:21.454Z,6.13
2022-11-08T08:30:24.652Z,5.07
2022-11-08T08:32:31.296Z,7.15
2022-11-08T08:34:33.685Z,6.60
2022-11-08T08:36:37.136Z,5.57
2022-11-08T08:38:44.174Z,4.87
2022-11-08T08:40:46.473Z,4.90
2022-11-08T08:42:48.317Z,4.27
2022-11-08T08:44:50.002Z,4.40
2022-11-08T08:46:51.623Z,5.60
2022-11-08T08:48:53.259Z,5.50
2022-11-08T08:50:55.147Z,5.35
2022-11-08T08:52:59.572Z,6.07
2022-11-08T08:55:01.130Z,5.33
2022-11-08T08:57:02.779Z,4.70
2022-11-08T09:01:41.259Z,4.50
2022-11-08T09:03:43.057Z,4.67
2022-11-08T09:05:44.837Z,4.88
2022-11-08T09:07:46.395Z,4.32
2022-11-08T09:09:49.248Z,3.90
2022-11-08T09:11:50.800Z,3.77
2022-11-08T09:13:52.354Z,3.90
2022-11-08T09:15:54.079Z,3.20
2022-11-08T09:17:56.106Z,3.53
2022-11-08T09:19:57.740Z,3.03
2022-11-08T09:21:59.350Z,2.90
2022-11-08T09:24:00.967Z,2.97
2022-11-08T09:26:05.239Z,3.10
2022-11-08T09:28:07.492Z,3.00
2022-11-08T09:30:10.281Z,2.67
2022-11-08T09:32:11.901Z,3.37
2022-11-08T09:34:15.145Z,2.67
2022-11-08T09:36:19.300Z,2.73
2022-11-08T09:38:20.962Z,3.17
2022-11-08T09:40:30.201Z,3.00
2022-11-08T09:42:45.317Z,2.83
2022-11-08T09:45:03.052Z,3.10
2022-11-08T09:47:14.380Z,2.40
2022-11-08T09:49:21.190Z,2.47
2022-11-08T09:51:24.264Z,2.30
2022-11-08T09:53:32.332Z,3.00
2022-11-08T09:55:39.733Z,2.93
2022-11-08T09:57:52.615Z,2.53
2022-11-08T10:00:00.944Z,2.97
2022-11-08T10:02:03.177Z,2.60
2022-11-08T10:04:08.907Z,2.67
2022-11-08T10:06:46.175Z,2.90
2022-11-08T10:08:55.437Z,2.90
2022-11-08T10:11:20.214Z,3.60
2022-11-08T10:13:33.854Z,2.60
2022-11-08T10:15:41.321Z,2.50
2022-11-08T10:18:27.029Z,2.80
2022-11-08T10:20:40.088Z,2.90
2022-11-08T10:22:51.681Z,3.00
2022-11-08T10:25:00.436Z,2.70
2022-11-08T10:27:03.760Z,2.93
2022-11-08T10:29:14.137Z,3.17
2022-11-08T10:31:17.854Z,3.20
2022-11-08T10:33:22.811Z,3.40
2022-11-08T10:35:31.127Z,2.90
2022-11-08T10:37:34.080Z,2.47
2022-11-08T10:39:42.725Z,3.03
2022-11-08T10:41:49.911Z,2.57
2022-11-08T10:43:57.977Z,2.60
2022-11-08T10:46:00.964Z,2.80
2022-11-08T10:48:03.148Z,2.70
2022-11-08T10:50:13.812Z,2.60
2022-11-08T10:52:18.441Z,3.30
2022-11-08T10:54:49.377Z,2.57
2022-11-08T10:56:54.985Z,3.50
2022-11-08T10:58:56.553Z,2.80
2022-11-08T11:01:05.925Z,2.73
2022-11-08T11:03:23.476Z,3.03
2022-11-08T11:05:31.300Z,2.80
2022-11-08T11:07:34.744Z,2.93
2022-11-08T11:09:36.284Z,3.03
2022-11-08T11:11:38.297Z,3.00
2022-11-08T11:13:39.843Z,3.10
2022-11-08T11:15:46.299Z,2.83
2022-11-08T11:17:49.222Z,3.20
2022-11-08T11:19:54.854Z,2.90
2022-11-08T11:22:01.488Z,3.07
2022-11-08T11:24:08.990Z,2.90
2022-11-08T11:26:20.224Z,3.07
2022-11-08T11:28:21.814Z,3.33
2022-11-08T11:30:29.340Z,3.07
2022-11-08T11:32:34.270Z,3.00
2022-11-08T11:34:50.692Z,2.63
2022-11-08T11:36:57.137Z,3.03
2022-11-08T11:39:02.768Z,3.27
2022-11-08T11:41:12.938Z,2.80
2022-11-08T11:43:24.152Z,2.30
2022-11-08T11:45:30.797Z,2.53
2022-11-08T11:47:37.441Z,3.30
2022-11-08T11:49:42.911Z,2.80
2022-11-08T11:51:45.927Z,2.90
2022-11-08T11:53:48.924Z,2.93
2022-11-08T11:56:25.941Z,2.63
2022-11-08T11:58:45.494Z,2.70
2022-11-08T12:00:56.010Z,3.00
2022-11-08T12:03:36.099Z,2.90
2022-11-08T12:05:56.191Z,2.80
2022-11-08T12:08:12.128Z,2.87
2022-11-08T12:10:23.654Z,3.13
2022-11-08T12:12:41.565Z,3.03
2022-11-08T12:14:57.479Z,3.07
2022-11-08T12:17:10.160Z,2.93
2022-11-08T12:19:29.077Z,3.00
2022-11-08T12:21:38.161Z,3.00
2022-11-08T12:23:56.465Z,3.60
2022-11-08T12:26:09.394Z,3.50
2022-11-08T12:28:28.307Z,3.83
2022-11-08T12:30:37.342Z,3.30
2022-11-08T12:32:54.112Z,2.80
2022-11-08T12:35:19.040Z,3.13
2022-11-08T12:37:30.766Z,3.60
2022-11-08T12:39:42.304Z,3.77
2022-11-08T12:41:53.648Z,2.97
2022-11-08T12:44:15.481Z,3.93
2022-11-08T12:46:18.914Z,4.17
2022-11-08T12:48:32.525Z,3.20
2022-11-08T12:50:44.252Z,3.30
2022-11-08T12:53:02.290Z,2.80
2022-11-08T12:55:11.340Z,2.97
2022-11-08T12:57:15.869Z,2.70
2022-11-08T12:59:22.701Z,3.33
2022-11-08T13:01:24.328Z,3.10
2022-11-08T13:03:52.225Z,2.73
